sensor_id;sensor_type;location;lat;lon;timestamp;pressure;altitude;pressure_sealevel;temperature;humidity
13124;BME280;6627;50.920;12.050;2023-08-30T00:00:33;98356.13;;;25.74;46.99
13124;BME280;6627;50.920;12.050;2023-08-30T00:03:02;98363.38;;;26.36;45.38
13124;BME280;6627;50.920;12.050;2023-08-30T00:05:30;98388.25;;;26.47;45.22
13124;BME280;6627;50.920;12.050;2023-08-30T00:08:00;98440.91;;;27.19;44.67
13124;BME280;6627;50.920;12.050;2023-08-30T00:10:28;98355.13;;;26.63;44.37
13124;BME280;6627;50.920;12.050;2023-08-30T00:12:56;98338.53;;;25.91;45.71
13124;BME280;6627;50.920;12.050;2023-08-30T00:15:24;98391.22;;;26.29;45.70
13124;BME280;6627;50.920;12.050;2023-08-30T00:17:54;98388.00;;;26.34;45.66
13124;BME280;6627;50.920;12.050;2023-08-30T00:20:22;98339.00;;;25.86;45.88
13124;BME280;6627;50.920;12.050;2023-08-30T00:22:51;98391.56;;;26.01;46.53
13124;BME280;6627;50.920;12.050;2023-08-30T00:25:20;98352.13;;;25.82;46.50
13124;BME280;6627;50.920;12.050;2023-08-30T00:27:48;98391.13;;;26.02;46.65
13124;BME280;6627;50.920;12.050;2023-08-30T00:30:17;98401.66;;;26.22;46.14
13124;BME280;6627;50.920;12.050;2023-08-30T00:32:45;98425.25;;;27.02;44.79
13124;BME280;6627;50.920;12.050;2023-08-30T00:35:13;98385.94;;;26.73;44.96
13124;BME280;6627;50.920;12.050;2023-08-30T00:37:41;98410.63;;;26.98;44.33
13124;BME280;6627;50.920;12.050;2023-08-30T00:40:09;98401.09;;;26.68;44.55
13124;BME280;6627;50.920;12.050;2023-08-30T00:42:39;98395.19;;;26.66;44.65
13124;BME280;6627;50.920;12.050;2023-08-30T00:45:08;98401.78;;;26.41;45.38
13124;BME280;6627;50.920;12.050;2023-08-30T00:47:37;98376.06;;;26.37;45.21
13124;BME280;6627;50.920;12.050;2023-08-30T00:50:06;98397.44;;;26.40;45.23
13124;BME280;6627;50.920;12.050;2023-08-30T00:52:34;98391.03;;;26.47;44.75
13124;BME280;6627;50.920;12.050;2023-08-30T00:55:02;98419.91;;;26.57;45.18
13124;BME280;6627;50.920;12.050;2023-08-30T00:57:30;98421.47;;;26.20;45.74
13124;BME280;6627;50.920;12.050;2023-08-30T01:00:00;98455.28;;;27.91;42.96
13124;BME280;6627;50.920;12.050;2023-08-30T01:02:30;98398.72;;;27.71;42.50
13124;BME280;6627;50.920;12.050;2023-08-30T01:04:59;98289.78;;;25.53;45.36
13124;BME280;6627;50.920;12.050;2023-08-30T01:07:26;98345.66;;;25.51;46.30
13124;BME280;6627;50.920;12.050;2023-08-30T01:09:55;98352.03;;;25.89;45.41
13124;BME280;6627;50.920;12.050;2023-08-30T01:12:27;98443.28;;;26.59;45.30
13124;BME280;6627;50.920;12.050;2023-08-30T01:15:04;98404.34;;;26.63;44.93
13124;BME280;6627;50.920;12.050;2023-08-30T01:17:34;98358.19;;;26.08;45.26
13124;BME280;6627;50.920;12.050;2023-08-30T01:20:05;98303.63;;;25.11;46.55
13124;BME280;6627;50.920;12.050;2023-08-30T01:22:54;98337.84;;;25.80;45.69
13124;BME280;6627;50.920;12.050;2023-08-30T01:25:31;98417.13;;;26.57;44.94
13124;BME280;6627;50.920;12.050;2023-08-30T01:28:07;98305.75;;;25.41;46.19
13124;BME280;6627;50.920;12.050;2023-08-30T01:30:39;98324.25;;;25.93;45.61
13124;BME280;6627;50.920;12.050;2023-08-30T01:33:08;98314.09;;;25.76;45.40
13124;BME280;6627;50.920;12.050;2023-08-30T01:35:37;98282.28;;;25.01;46.43
13124;BME280;6627;50.920;12.050;2023-08-30T01:38:08;98273.91;;;25.15;46.07
13124;BME280;6627;50.920;12.050;2023-08-30T01:40:39;98287.31;;;24.65;47.04
13124;BME280;6627;50.920;12.050;2023-08-30T01:43:10;98295.91;;;24.81;46.93
13124;BME280;6627;50.920;12.050;2023-08-30T01:45:40;98328.69;;;25.46;45.81
13124;BME280;6627;50.920;12.050;2023-08-30T01:48:11;98246.31;;;24.98;45.52
13124;BME280;6627;50.920;12.050;2023-08-30T01:50:41;98267.47;;;24.04;47.84
13124;BME280;6627;50.920;12.050;2023-08-30T01:53:11;98317.34;;;24.74;47.05
13124;BME280;6627;50.920;12.050;2023-08-30T01:55:40;98251.28;;;24.06;47.57
13124;BME280;6627;50.920;12.050;2023-08-30T01:58:09;98309.56;;;24.51;46.81
13124;BME280;6627;50.920;12.050;2023-08-30T02:00:37;98252.06;;;23.99;47.36
13124;BME280;6627;50.920;12.050;2023-08-30T02:03:09;98293.03;;;24.40;47.01
13124;BME280;6627;50.920;12.050;2023-08-30T02:05:43;98301.47;;;24.78;46.08
13124;BME280;6627;50.920;12.050;2023-08-30T02:08:16;98280.88;;;24.79;45.54
13124;BME280;6627;50.920;12.050;2023-08-30T02:10:51;98240.13;;;24.20;46.38
13124;BME280;6627;50.920;12.050;2023-08-30T02:13:25;98304.09;;;24.36;46.79
13124;BME280;6627;50.920;12.050;2023-08-30T02:15:55;98268.81;;;24.51;46.24
13124;BME280;6627;50.920;12.050;2023-08-30T02:18:25;98275.72;;;24.18;46.79
13124;BME280;6627;50.920;12.050;2023-08-30T02:20:53;98259.75;;;24.44;45.85
13124;BME280;6627;50.920;12.050;2023-08-30T02:23:23;98241.56;;;24.46;45.52
13124;BME280;6627;50.920;12.050;2023-08-30T02:25:53;98269.34;;;24.21;46.37
13124;BME280;6627;50.920;12.050;2023-08-30T02:28:23;98240.03;;;24.41;45.43
13124;BME280;6627;50.920;12.050;2023-08-30T02:30:52;98262.63;;;24.26;46.30
13124;BME280;6627;50.920;12.050;2023-08-30T02:33:20;98283.53;;;24.41;46.13
13124;BME280;6627;50.920;12.050;2023-08-30T02:35:48;98238.47;;;24.33;45.61
13124;BME280;6627;50.920;12.050;2023-08-30T02:38:16;98234.66;;;24.13;45.79
13124;BME280;6627;50.920;12.050;2023-08-30T02:40:44;98266.13;;;24.44;45.81
13124;BME280;6627;50.920;12.050;2023-08-30T02:43:11;98244.53;;;24.73;45.08
13124;BME280;6627;50.920;12.050;2023-08-30T02:45:41;98279.56;;;24.98;44.48
13124;BME280;6627;50.920;12.050;2023-08-30T02:48:08;98211.41;;;24.62;44.80
13124;BME280;6627;50.920;12.050;2023-08-30T02:50:36;98317.16;;;25.47;44.13
13124;BME280;6627;50.920;12.050;2023-08-30T02:53:04;98226.09;;;25.01;43.72
13124;BME280;6627;50.920;12.050;2023-08-30T02:55:35;98264.81;;;25.15;44.42
13124;BME280;6627;50.920;12.050;2023-08-30T02:58:03;98120.69;;;23.59;45.10
13124;BME280;6627;50.920;12.050;2023-08-30T03:00:31;98174.16;;;23.16;47.10
13124;BME280;6627;50.920;12.050;2023-08-30T03:03:02;98316.66;;;24.59;46.21
13124;BME280;6627;50.920;12.050;2023-08-30T03:05:30;98308.22;;;25.32;44.61
13124;BME280;6627;50.920;12.050;2023-08-30T03:07:58;98269.88;;;24.75;45.11
13124;BME280;6627;50.920;12.050;2023-08-30T03:10:26;98220.84;;;24.65;44.37
13124;BME280;6627;50.920;12.050;2023-08-30T03:12:54;98211.19;;;24.35;45.06
13124;BME280;6627;50.920;12.050;2023-08-30T03:15:21;98258.09;;;24.57;45.17
13124;BME280;6627;50.920;12.050;2023-08-30T03:17:49;98245.56;;;24.94;44.09
13124;BME280;6627;50.920;12.050;2023-08-30T03:20:19;98264.50;;;24.47;45.29
13124;BME280;6627;50.920;12.050;2023-08-30T03:22:47;98195.94;;;24.06;45.07
13124;BME280;6627;50.920;12.050;2023-08-30T03:25:15;98211.75;;;24.02;45.51
13124;BME280;6627;50.920;12.050;2023-08-30T03:27:44;98268.81;;;24.55;45.08
13124;BME280;6627;50.920;12.050;2023-08-30T03:30:12;98234.38;;;24.56;44.79
13124;BME280;6627;50.920;12.050;2023-08-30T03:32:40;98236.16;;;24.21;45.41
13124;BME280;6627;50.920;12.050;2023-08-30T03:35:08;98212.88;;;24.15;45.16
13124;BME280;6627;50.920;12.050;2023-08-30T03:37:39;98264.13;;;24.45;45.57
13124;BME280;6627;50.920;12.050;2023-08-30T03:40:07;98194.16;;;23.67;45.70
13124;BME280;6627;50.920;12.050;2023-08-30T03:42:36;98219.06;;;23.53;46.43
13124;BME280;6627;50.920;12.050;2023-08-30T03:45:04;98235.56;;;23.81;46.08
13124;BME280;6627;50.920;12.050;2023-08-30T03:47:33;98216.28;;;23.60;45.98
13124;BME280;6627;50.920;12.050;2023-08-30T03:50:00;98213.44;;;23.81;45.46
13124;BME280;6627;50.920;12.050;2023-08-30T03:52:28;98208.75;;;23.71;45.54
13124;BME280;6627;50.920;12.050;2023-08-30T03:54:57;98196.59;;;23.36;46.18
13124;BME280;6627;50.920;12.050;2023-08-30T03:57:25;98213.53;;;23.53;46.21
13124;BME280;6627;50.920;12.050;2023-08-30T03:59:53;98219.78;;;23.82;45.55
13124;BME280;6627;50.920;12.050;2023-08-30T04:02:21;98221.03;;;23.52;46.15
13124;BME280;6627;50.920;12.050;2023-08-30T04:04:50;98237.53;;;23.84;46.05
13124;BME280;6627;50.920;12.050;2023-08-30T04:07:18;98231.09;;;24.09;45.10
13124;BME280;6627;50.920;12.050;2023-08-30T04:09:46;98155.53;;;23.38;45.34
13124;BME280;6627;50.920;12.050;2023-08-30T04:12:15;98229.34;;;23.41;46.60
13124;BME280;6627;50.920;12.050;2023-08-30T04:14:43;98296.81;;;23.76;46.70
13124;BME280;6627;50.920;12.050;2023-08-30T04:17:11;98214.63;;;23.77;45.64
13124;BME280;6627;50.920;12.050;2023-08-30T04:19:39;98200.06;;;23.62;45.83
13124;BME280;6627;50.920;12.050;2023-08-30T04:22:06;98249.00;;;23.79;45.81
13124;BME280;6627;50.920;12.050;2023-08-30T04:24:34;98213.34;;;24.03;44.86
13124;BME280;6627;50.920;12.050;2023-08-30T04:27:02;98205.63;;;23.55;45.56
13124;BME280;6627;50.920;12.050;2023-08-30T04:29:31;98256.91;;;23.77;46.03
13124;BME280;6627;50.920;12.050;2023-08-30T04:31:59;98219.03;;;23.67;45.39
13124;BME280;6627;50.920;12.050;2023-08-30T04:34:27;98237.09;;;23.89;45.64
13124;BME280;6627;50.920;12.050;2023-08-30T04:36:56;98270.00;;;24.54;44.13
13124;BME280;6627;50.920;12.050;2023-08-30T04:39:24;98270.47;;;24.41;44.29
13124;BME280;6627;50.920;12.050;2023-08-30T04:41:52;98278.41;;;24.91;43.65
13124;BME280;6627;50.920;12.050;2023-08-30T04:44:19;98240.19;;;24.06;45.06
13124;BME280;6627;50.920;12.050;2023-08-30T04:46:52;98237.03;;;24.04;45.03
13124;BME280;6627;50.920;12.050;2023-08-30T04:49:20;98234.28;;;24.04;45.14
13124;BME280;6627;50.920;12.050;2023-08-30T04:51:48;98236.16;;;24.21;44.80
13124;BME280;6627;50.920;12.050;2023-08-30T04:54:15;98244.91;;;24.12;44.87
13124;BME280;6627;50.920;12.050;2023-08-30T04:56:43;98347.19;;;25.07;44.55
13124;BME280;6627;50.920;12.050;2023-08-30T04:59:11;98286.38;;;24.86;44.22
13124;BME280;6627;50.920;12.050;2023-08-30T05:01:39;98208.22;;;24.64;43.72
13124;BME280;6627;50.920;12.050;2023-08-30T05:04:13;98269.66;;;24.97;43.78
13124;BME280;6627;50.920;12.050;2023-08-30T05:06:41;98279.78;;;25.21;43.40
13124;BME280;6627;50.920;12.050;2023-08-30T05:09:09;98157.44;;;24.26;43.71
13124;BME280;6627;50.920;12.050;2023-08-30T05:11:37;98266.91;;;24.97;43.91
13124;BME280;6627;50.920;12.050;2023-08-30T05:14:05;98266.25;;;25.30;43.31
13124;BME280;6627;50.920;12.050;2023-08-30T05:16:33;98241.22;;;24.92;43.64
13124;BME280;6627;50.920;12.050;2023-08-30T05:19:02;98302.59;;;25.36;43.65
13124;BME280;6627;50.920;12.050;2023-08-30T05:21:32;98288.28;;;25.45;43.53
13124;BME280;6627;50.920;12.050;2023-08-30T05:24:00;98273.09;;;24.66;45.01
13124;BME280;6627;50.920;12.050;2023-08-30T05:26:43;98295.25;;;24.66;45.35
13124;BME280;6627;50.920;12.050;2023-08-30T05:29:16;98326.69;;;24.94;44.80
13124;BME280;6627;50.920;12.050;2023-08-30T05:31:44;98285.28;;;24.76;44.80
13124;BME280;6627;50.920;12.050;2023-08-30T05:34:12;98265.94;;;24.65;44.77
13124;BME280;6627;50.920;12.050;2023-08-30T05:36:41;98246.34;;;24.38;45.07
13124;BME280;6627;50.920;12.050;2023-08-30T05:39:08;98221.28;;;23.90;45.88
13124;BME280;6627;50.920;12.050;2023-08-30T05:41:36;98234.00;;;23.80;46.34
13124;BME280;6627;50.920;12.050;2023-08-30T05:44:04;98202.13;;;23.44;46.72
13124;BME280;6627;50.920;12.050;2023-08-30T05:46:34;98249.84;;;23.69;46.52
13124;BME280;6627;50.920;12.050;2023-08-30T05:49:14;98327.44;;;24.35;46.03
13124;BME280;6627;50.920;12.050;2023-08-30T05:51:43;98304.94;;;24.26;46.17
13124;BME280;6627;50.920;12.050;2023-08-30T05:54:12;98288.97;;;24.59;45.19
13124;BME280;6627;50.920;12.050;2023-08-30T05:56:42;98270.41;;;25.04;43.77
13124;BME280;6627;50.920;12.050;2023-08-30T05:59:10;98339.25;;;25.13;44.47
13124;BME280;6627;50.920;12.050;2023-08-30T06:01:38;98289.00;;;25.07;44.30
13124;BME280;6627;50.920;12.050;2023-08-30T06:04:25;98241.47;;;24.60;44.75
13124;BME280;6627;50.920;12.050;2023-08-30T06:06:54;98339.66;;;25.15;44.54
13124;BME280;6627;50.920;12.050;2023-08-30T06:09:22;98234.16;;;24.25;45.61
13124;BME280;6627;50.920;12.050;2023-08-30T06:11:49;98298.50;;;24.51;45.52
13124;BME280;6627;50.920;12.050;2023-08-30T06:14:17;98295.97;;;24.74;45.88
13124;BME280;6627;50.920;12.050;2023-08-30T06:16:45;98305.81;;;24.05;47.09
13124;BME280;6627;50.920;12.050;2023-08-30T06:19:13;98274.81;;;24.39;45.99
13124;BME280;6627;50.920;12.050;2023-08-30T06:21:41;98158.69;;;23.40;46.53
13124;BME280;6627;50.920;12.050;2023-08-30T06:24:10;98209.69;;;23.07;48.07
13124;BME280;6627;50.920;12.050;2023-08-30T06:26:38;98239.66;;;23.30;48.23
13124;BME280;6627;50.920;12.050;2023-08-30T06:29:06;98237.34;;;23.11;49.02
13124;BME280;6627;50.920;12.050;2023-08-30T06:31:37;98303.31;;;24.36;46.69
13124;BME280;6627;50.920;12.050;2023-08-30T06:34:06;98395.28;;;25.38;45.61
13124;BME280;6627;50.920;12.050;2023-08-30T06:36:33;98287.25;;;24.76;45.52
13124;BME280;6627;50.920;12.050;2023-08-30T06:39:01;98428.06;;;25.51;45.09
13124;BME280;6627;50.920;12.050;2023-08-30T06:41:31;98342.56;;;24.90;45.65
13124;BME280;6627;50.920;12.050;2023-08-30T06:44:00;98349.94;;;25.59;44.77
13124;BME280;6627;50.920;12.050;2023-08-30T06:46:28;98482.28;;;26.49;43.82
13124;BME280;6627;50.920;12.050;2023-08-30T06:48:59;98264.84;;;25.04;44.69
13124;BME280;6627;50.920;12.050;2023-08-30T06:51:27;98297.91;;;25.33;44.60
13124;BME280;6627;50.920;12.050;2023-08-30T06:53:55;98296.88;;;24.57;45.97
13124;BME280;6627;50.920;12.050;2023-08-30T06:56:29;98309.78;;;25.33;44.82
13124;BME280;6627;50.920;12.050;2023-08-30T06:58:58;98410.25;;;25.93;44.91
13124;BME280;6627;50.920;12.050;2023-08-30T07:01:32;98325.94;;;25.83;44.07
13124;BME280;6627;50.920;12.050;2023-08-30T07:04:02;98391.50;;;26.08;44.39
13124;BME280;6627;50.920;12.050;2023-08-30T07:06:31;98477.28;;;27.32;42.23
13124;BME280;6627;50.920;12.050;2023-08-30T07:08:59;98505.91;;;28.30;40.38
13124;BME280;6627;50.920;12.050;2023-08-30T07:11:27;98421.63;;;28.26;39.89
13124;BME280;6627;50.920;12.050;2023-08-30T07:13:56;98368.97;;;28.35;39.27
13124;BME280;6627;50.920;12.050;2023-08-30T07:16:24;98127.88;;;25.74;42.01
13124;BME280;6627;50.920;12.050;2023-08-30T07:18:52;98333.28;;;26.92;42.63
13124;BME280;6627;50.920;12.050;2023-08-30T07:21:20;98392.31;;;27.78;41.12
13124;BME280;6627;50.920;12.050;2023-08-30T07:23:48;98353.78;;;27.96;40.64
13124;BME280;6627;50.920;12.050;2023-08-30T07:26:17;98431.31;;;28.61;39.88
13124;BME280;6627;50.920;12.050;2023-08-30T07:28:45;98268.19;;;26.90;42.08
13124;BME280;6627;50.920;12.050;2023-08-30T07:31:15;98400.38;;;28.35;40.41
13124;BME280;6627;50.920;12.050;2023-08-30T07:33:45;98388.50;;;28.31;40.29
13124;BME280;6627;50.920;12.050;2023-08-30T07:36:14;98340.13;;;28.02;40.51
13124;BME280;6627;50.920;12.050;2023-08-30T07:38:42;98198.03;;;27.06;41.16
13124;BME280;6627;50.920;12.050;2023-08-30T07:41:14;98216.38;;;25.61;44.35
13124;BME280;6627;50.920;12.050;2023-08-30T07:43:42;98275.28;;;26.10;43.85
13124;BME280;6627;50.920;12.050;2023-08-30T07:46:10;98338.78;;;27.23;42.63
13124;BME280;6627;50.920;12.050;2023-08-30T07:48:39;98283.53;;;26.17;44.04
13124;BME280;6627;50.920;12.050;2023-08-30T07:51:07;98320.53;;;26.37;43.70
13124;BME280;6627;50.920;12.050;2023-08-30T07:53:34;98503.19;;;28.50;41.38
13124;BME280;6627;50.920;12.050;2023-08-30T07:56:03;98397.69;;;28.28;40.82
13124;BME280;6627;50.920;12.050;2023-08-30T07:58:32;98362.56;;;28.34;40.32
13124;BME280;6627;50.920;12.050;2023-08-30T08:01:00;98359.16;;;28.47;39.37
13124;BME280;6627;50.920;12.050;2023-08-30T08:03:32;98348.03;;;28.47;39.64
13124;BME280;6627;50.920;12.050;2023-08-30T08:06:02;98411.38;;;29.68;37.91
13124;BME280;6627;50.920;12.050;2023-08-30T08:08:31;98477.41;;;29.74;38.97
13124;BME280;6627;50.920;12.050;2023-08-30T08:11:00;98306.31;;;29.12;38.64
13124;BME280;6627;50.920;12.050;2023-08-30T08:13:30;98302.97;;;29.33;38.11
13124;BME280;6627;50.920;12.050;2023-08-30T08:16:10;98357.91;;;30.27;36.76
13124;BME280;6627;50.920;12.050;2023-08-30T08:18:41;98392.81;;;30.35;37.21
13124;BME280;6627;50.920;12.050;2023-08-30T08:21:11;98110.44;;;28.91;37.04
13124;BME280;6627;50.920;12.050;2023-08-30T08:23:39;98251.16;;;29.49;36.97
13124;BME280;6627;50.920;12.050;2023-08-30T08:26:10;98257.75;;;29.71;37.26
13124;BME280;6627;50.920;12.050;2023-08-30T08:28:37;98280.00;;;29.87;37.03
13124;BME280;6627;50.920;12.050;2023-08-30T08:31:05;98362.72;;;29.98;37.70
13124;BME280;6627;50.920;12.050;2023-08-30T08:33:39;98261.53;;;29.48;37.40
13124;BME280;6627;50.920;12.050;2023-08-30T08:36:07;98297.56;;;30.17;36.27
13124;BME280;6627;50.920;12.050;2023-08-30T08:38:36;98349.72;;;30.62;36.54
13124;BME280;6627;50.920;12.050;2023-08-30T08:41:06;98202.34;;;30.50;35.23
13124;BME280;6627;50.920;12.050;2023-08-30T08:43:34;98167.03;;;30.30;35.35
13124;BME280;6627;50.920;12.050;2023-08-30T08:46:04;98351.31;;;31.39;35.22
13124;BME280;6627;50.920;12.050;2023-08-30T08:48:36;98125.78;;;30.09;35.28
13124;BME280;6627;50.920;12.050;2023-08-30T08:51:07;98181.47;;;31.02;33.46
13124;BME280;6627;50.920;12.050;2023-08-30T08:53:36;98097.53;;;31.02;33.29
13124;BME280;6627;50.920;12.050;2023-08-30T08:56:05;98173.91;;;31.68;32.12
13124;BME280;6627;50.920;12.050;2023-08-30T08:58:36;97967.31;;;30.57;31.91
13124;BME280;6627;50.920;12.050;2023-08-30T09:01:06;97948.34;;;30.52;32.23
13124;BME280;6627;50.920;12.050;2023-08-30T09:03:43;98046.81;;;30.90;32.58
13124;BME280;6627;50.920;12.050;2023-08-30T09:06:11;97945.31;;;29.51;35.09
13124;BME280;6627;50.920;12.050;2023-08-30T09:08:41;98145.69;;;30.24;35.63
13124;BME280;6627;50.920;12.050;2023-08-30T09:11:08;98198.09;;;31.18;33.46
13124;BME280;6627;50.920;12.050;2023-08-30T09:13:36;98099.56;;;31.23;33.00
13124;BME280;6627;50.920;12.050;2023-08-30T09:16:12;98130.59;;;31.16;32.92
13124;BME280;6627;50.920;12.050;2023-08-30T09:18:40;98127.31;;;32.05;32.37
13124;BME280;6627;50.920;12.050;2023-08-30T09:21:08;97991.94;;;30.14;33.78
13124;BME280;6627;50.920;12.050;2023-08-30T09:23:36;98087.06;;;30.93;33.48
13124;BME280;6627;50.920;12.050;2023-08-30T09:26:05;97977.34;;;29.98;34.22
13124;BME280;6627;50.920;12.050;2023-08-30T09:28:42;98054.13;;;30.40;34.32
13124;BME280;6627;50.920;12.050;2023-08-30T09:31:17;98081.03;;;30.60;33.47
13124;BME280;6627;50.920;12.050;2023-08-30T09:33:46;97961.31;;;30.46;32.28
13124;BME280;6627;50.920;12.050;2023-08-30T09:36:15;97946.31;;;30.30;32.06
13124;BME280;6627;50.920;12.050;2023-08-30T09:38:48;97939.25;;;29.91;33.41
13124;BME280;6627;50.920;12.050;2023-08-30T09:41:18;97952.00;;;29.79;32.95
13124;BME280;6627;50.920;12.050;2023-08-30T09:43:46;97935.19;;;29.45;33.66
13124;BME280;6627;50.920;12.050;2023-08-30T09:46:14;97933.06;;;29.61;33.16
13124;BME280;6627;50.920;12.050;2023-08-30T09:48:42;97906.84;;;29.59;32.92
13124;BME280;6627;50.920;12.050;2023-08-30T09:51:11;97870.81;;;29.86;32.37
13124;BME280;6627;50.920;12.050;2023-08-30T09:53:45;97768.28;;;27.86;34.79
13124;BME280;6627;50.920;12.050;2023-08-30T09:56:22;97860.19;;;28.70;34.13
13124;BME280;6627;50.920;12.050;2023-08-30T09:58:50;97925.75;;;29.89;31.97
13124;BME280;6627;50.920;12.050;2023-08-30T10:01:19;98030.59;;;30.85;32.13
13124;BME280;6627;50.920;12.050;2023-08-30T10:03:48;97887.56;;;30.21;31.81
13124;BME280;6627;50.920;12.050;2023-08-30T10:06:16;97992.72;;;30.50;32.26
13124;BME280;6627;50.920;12.050;2023-08-30T10:08:45;97858.25;;;29.44;32.41
13124;BME280;6627;50.920;12.050;2023-08-30T10:11:29;97760.38;;;29.03;32.03
13124;BME280;6627;50.920;12.050;2023-08-30T10:13:58;97937.63;;;29.68;32.50
13124;BME280;6627;50.920;12.050;2023-08-30T10:16:27;98026.84;;;30.45;32.28
13124;BME280;6627;50.920;12.050;2023-08-30T10:19:03;97785.78;;;29.65;31.35
13124;BME280;6627;50.920;12.050;2023-08-30T10:21:32;97937.94;;;30.52;31.14
13124;BME280;6627;50.920;12.050;2023-08-30T10:24:05;97949.66;;;30.60;30.49
13124;BME280;6627;50.920;12.050;2023-08-30T10:26:36;97745.13;;;29.42;30.66
13124;BME280;6627;50.920;12.050;2023-08-30T10:29:06;97918.31;;;30.08;32.85
13124;BME280;6627;50.920;12.050;2023-08-30T10:31:34;97847.59;;;30.11;31.54
13124;BME280;6627;50.920;12.050;2023-08-30T10:34:11;97933.53;;;30.64;31.18
13124;BME280;6627;50.920;12.050;2023-08-30T10:36:40;97854.09;;;30.74;29.84
13124;BME280;6627;50.920;12.050;2023-08-30T10:39:12;97785.34;;;30.55;28.88
13124;BME280;6627;50.920;12.050;2023-08-30T10:41:56;97821.38;;;31.33;27.54
13124;BME280;6627;50.920;12.050;2023-08-30T10:44:24;97757.16;;;31.30;27.24
13124;BME280;6627;50.920;12.050;2023-08-30T10:46:53;97774.47;;;30.97;29.23
13124;BME280;6627;50.920;12.050;2023-08-30T10:49:21;97725.19;;;30.81;28.56
13124;BME280;6627;50.920;12.050;2023-08-30T10:51:57;97759.38;;;30.85;28.86
13124;BME280;6627;50.920;12.050;2023-08-30T10:54:37;97726.88;;;30.79;28.34
13124;BME280;6627;50.920;12.050;2023-08-30T10:57:13;97731.16;;;31.11;27.90
13124;BME280;6627;50.920;12.050;2023-08-30T11:00:03;97745.66;;;31.37;27.47
13124;BME280;6627;50.920;12.050;2023-08-30T11:02:32;97751.34;;;31.06;28.65
13124;BME280;6627;50.920;12.050;2023-08-30T11:05:00;97901.44;;;32.08;29.15
13124;BME280;6627;50.920;12.050;2023-08-30T11:07:28;97805.28;;;31.83;28.10
13124;BME280;6627;50.920;12.050;2023-08-30T11:09:56;97802.75;;;31.58;27.91
13124;BME280;6627;50.920;12.050;2023-08-30T11:12:25;97696.41;;;30.72;28.95
13124;BME280;6627;50.920;12.050;2023-08-30T11:14:54;97883.81;;;32.62;26.94
13124;BME280;6627;50.920;12.050;2023-08-30T11:17:21;97712.38;;;31.76;27.18
13124;BME280;6627;50.920;12.050;2023-08-30T11:19:51;97653.44;;;31.06;28.13
13124;BME280;6627;50.920;12.050;2023-08-30T11:22:25;97843.22;;;32.21;28.20
13124;BME280;6627;50.920;12.050;2023-08-30T11:24:54;97736.19;;;31.71;27.86
13124;BME280;6627;50.920;12.050;2023-08-30T11:27:25;97847.44;;;32.86;27.12
13124;BME280;6627;50.920;12.050;2023-08-30T11:29:58;97739.91;;;31.77;27.81
13124;BME280;6627;50.920;12.050;2023-08-30T11:32:37;97844.63;;;32.86;27.00
13124;BME280;6627;50.920;12.050;2023-08-30T11:35:24;97711.25;;;31.82;27.47
13124;BME280;6627;50.920;12.050;2023-08-30T11:37:52;97652.97;;;31.62;27.14
13124;BME280;6627;50.920;12.050;2023-08-30T11:40:20;97682.06;;;31.83;27.19
13124;BME280;6627;50.920;12.050;2023-08-30T11:42:50;97798.09;;;32.71;26.41
13124;BME280;6627;50.920;12.050;2023-08-30T11:45:27;97754.56;;;32.84;25.65
13124;BME280;6627;50.920;12.050;2023-08-30T11:47:55;97721.75;;;32.33;26.75
13124;BME280;6627;50.920;12.050;2023-08-30T11:50:23;97852.66;;;33.12;26.70
13124;BME280;6627;50.920;12.050;2023-08-30T11:52:50;97552.41;;;31.40;27.08
13124;BME280;6627;50.920;12.050;2023-08-30T11:55:18;97561.75;;;31.28;27.15
13124;BME280;6627;50.920;12.050;2023-08-30T11:57:50;97686.22;;;31.70;27.91
13124;BME280;6627;50.920;12.050;2023-08-30T12:00:21;97721.16;;;32.20;27.01
13124;BME280;6627;50.920;12.050;2023-08-30T12:02:49;97810.97;;;32.96;26.99
13124;BME280;6627;50.920;12.050;2023-08-30T12:05:16;97811.72;;;32.96;27.09
13124;BME280;6627;50.920;12.050;2023-08-30T12:07:50;97681.75;;;31.63;28.50
13124;BME280;6627;50.920;12.050;2023-08-30T12:10:20;97808.25;;;32.68;27.56
13124;BME280;6627;50.920;12.050;2023-08-30T12:12:49;97828.41;;;33.00;27.29
13124;BME280;6627;50.920;12.050;2023-08-30T12:15:16;97810.06;;;32.80;27.90
13124;BME280;6627;50.920;12.050;2023-08-30T12:17:44;97801.22;;;33.63;26.05
13124;BME280;6627;50.920;12.050;2023-08-30T12:20:15;97859.38;;;33.96;26.01
13124;BME280;6627;50.920;12.050;2023-08-30T12:22:46;97855.13;;;33.91;26.00
13124;BME280;6627;50.920;12.050;2023-08-30T12:25:18;97641.69;;;32.99;25.57
13124;BME280;6627;50.920;12.050;2023-08-30T12:27:50;97624.94;;;32.80;26.12
13124;BME280;6627;50.920;12.050;2023-08-30T12:30:21;97739.22;;;33.52;25.45
13124;BME280;6627;50.920;12.050;2023-08-30T12:32:49;97522.69;;;31.95;26.38
13124;BME280;6627;50.920;12.050;2023-08-30T12:35:16;97670.78;;;32.11;27.63
13124;BME280;6627;50.920;12.050;2023-08-30T12:37:44;97819.50;;;33.34;27.18
13124;BME280;6627;50.920;12.050;2023-08-30T12:40:12;97702.03;;;32.61;27.45
13124;BME280;6627;50.920;12.050;2023-08-30T12:42:40;97607.41;;;32.47;27.39
13124;BME280;6627;50.920;12.050;2023-08-30T12:45:11;97704.69;;;33.36;26.64
13124;BME280;6627;50.920;12.050;2023-08-30T12:47:53;97571.38;;;31.97;27.32
13124;BME280;6627;50.920;12.050;2023-08-30T12:50:22;97416.66;;;31.03;26.90
13124;BME280;6627;50.920;12.050;2023-08-30T12:52:51;97656.72;;;31.59;28.14
13124;BME280;6627;50.920;12.050;2023-08-30T12:55:19;97576.69;;;31.07;29.24
13124;BME280;6627;50.920;12.050;2023-08-30T12:57:48;97515.44;;;30.35;29.65
13124;BME280;6627;50.920;12.050;2023-08-30T13:00:18;97555.66;;;30.29;nan
13124;BME280;6627;50.920;12.050;2023-08-30T13:02:50;97777.53;;;31.30;29.74
13124;BME280;6627;50.920;12.050;2023-08-30T13:05:18;97746.09;;;31.26;29.41
13124;BME280;6627;50.920;12.050;2023-08-30T13:07:46;97824.56;;;31.90;28.74
13124;BME280;6627;50.920;12.050;2023-08-30T13:10:14;97567.59;;;30.29;29.94
13124;BME280;6627;50.920;12.050;2023-08-30T13:12:44;97527.25;;;28.97;31.53